PWSweather.com
Personal Weather Stations
Station Observations
KV9EWX
Winnebago, Il, Winnebago, IL 61088

Winnebago, IlWinnebago, IL 61088

Lat: 42.261175, Lon: -89.236369

Elevation: 892

Station Type: Lacrosse ws-2811

Latest ConditionsUpdated 5:21:39 PM CST Friday, Dec 19, 2014
Currently Today's Max Today's Min Today's Average
Temperature 25.8°F-3.4°C 27.3°F-2.6°C 24.4°F-4.2°C 25.5°F-3.6°C
Dew Point 22.4°F-5.3°C 23.9°F-4.5°C 21.1°F-6.1°C 22.2°F-5.4°C
Winds Calm Calm 5.4 mph NNE8.7 kmh NNE - 1.1 mph 1.8 kmh
Wind Gusts 1.9 mph3.1 kmh 9.8 mph15.8 kmh - -
Humidity 87% 88% 86% 87%
Pressure 29.82 in1009.8 mb 29.85 in1010.8 mb 29.79 in1008.8 mb -
Hour Temp Dew Point Humidity Winds Wind Gusts Pressure Precip Precip Rate Daily Precip Total
05:21 PM 25.8°F-3.4°C 22.4°F-5.3°C 87% Calm Calm 1.9 mph3.1 kmh 29.82 in1009.8 mb 0.00 in0.0 mm 0.00 in/hr0.0 mm/hr 0.00 in0.0 mm
05:16 PM 25.8°F-3.4°C 22.4°F-5.3°C 87% Calm Calm 3.5 mph5.6 kmh 29.82 in1009.8 mb 0.00 in0.0 mm 0.00 in/hr0.0 mm/hr 0.00 in0.0 mm
05:11 PM 25.8°F-3.4°C 22.4°F-5.3°C 87% 1.9 mph W3.1 kmh W 3.5 mph5.6 kmh 29.83 in1010.2 mb 0.00 in0.0 mm 0.00 in/hr0.0 mm/hr 0.00 in0.0 mm
05:06 PM 25.8°F-3.4°C 22.4°F-5.3°C 87% 1.4 mph W2.3 kmh W 3.1 mph5.0 kmh 29.83 in1010.2 mb 0.00 in0.0 mm 0.00 in/hr0.0 mm/hr 0.00 in0.0 mm
05:01 PM 26.0°F-3.3°C 22.6°F-5.2°C 87% 0.7 mph NW1.1 kmh NW 3.1 mph5.0 kmh 29.84 in1010.5 mb 0.00 in0.0 mm 0.00 in/hr0.0 mm/hr 0.00 in0.0 mm
04:56 PM 26.0°F-3.3°C 22.6°F-5.2°C 87% 0.9 mph W1.4 kmh W 3.9 mph6.3 kmh 29.84 in1010.5 mb 0.00 in0.0 mm 0.00 in/hr0.0 mm/hr 0.00 in0.0 mm
04:51 PM 26.0°F-3.3°C 22.6°F-5.2°C 87% 1.0 mph S1.6 kmh S 3.9 mph6.3 kmh 29.84 in1010.5 mb 0.00 in0.0 mm 0.00 in/hr0.0 mm/hr 0.00 in0.0 mm
04:46 PM 26.0°F-3.3°C 22.6°F-5.2°C 87% Calm Calm 0.3 mph0.5 kmh 29.84 in1010.5 mb 0.00 in0.0 mm 0.00 in/hr0.0 mm/hr 0.00 in0.0 mm
04:41 PM 26.2°F-3.2°C 22.8°F-5.1°C 87% Calm Calm 1.2 mph1.9 kmh 29.84 in1010.5 mb 0.00 in0.0 mm 0.00 in/hr0.0 mm/hr 0.00 in0.0 mm
04:36 PM 26.2°F-3.2°C 22.8°F-5.1°C 87% 0.4 mph WNW0.6 kmh WNW 1.2 mph1.9 kmh 29.84 in1010.5 mb 0.00 in0.0 mm 0.00 in/hr0.0 mm/hr 0.00 in0.0 mm
04:31 PM 26.2°F-3.2°C 22.8°F-5.1°C 87% Calm Calm -- 29.84 in1010.5 mb 0.00 in0.0 mm 0.00 in/hr0.0 mm/hr 0.00 in0.0 mm
04:26 PM 26.0°F-3.3°C 22.6°F-5.2°C 87% Calm Calm -- 29.84 in1010.5 mb 0.00 in0.0 mm 0.00 in/hr0.0 mm/hr 0.00 in0.0 mm
04:21 PM 26.2°F-3.2°C 22.8°F-5.1°C 87% Calm Calm 2.8 mph4.5 kmh 29.84 in1010.5 mb 0.00 in0.0 mm 0.00 in/hr0.0 mm/hr 0.00 in0.0 mm
04:16 PM 26.2°F-3.2°C 22.8°F-5.1°C 87% Calm Calm 2.8 mph4.5 kmh 29.84 in1010.5 mb 0.00 in0.0 mm 0.00 in/hr0.0 mm/hr 0.00 in0.0 mm
04:11 PM 26.2°F-3.2°C 22.8°F-5.1°C 87% 1.0 mph SSW1.6 kmh SSW 3.1 mph5.0 kmh 29.84 in1010.5 mb 0.00 in0.0 mm 0.00 in/hr0.0 mm/hr 0.00 in0.0 mm
04:06 PM 26.2°F-3.2°C 22.8°F-5.1°C 87% 1.4 mph S2.3 kmh S 4.7 mph7.6 kmh 29.84 in1010.5 mb 0.00 in0.0 mm 0.00 in/hr0.0 mm/hr 0.00 in0.0 mm
04:01 PM 26.2°F-3.2°C 22.8°F-5.1°C 87% 2.0 mph S3.2 kmh S 4.7 mph7.6 kmh 29.84 in1010.5 mb 0.00 in0.0 mm 0.00 in/hr0.0 mm/hr 0.00 in0.0 mm
03:56 PM 26.2°F-3.2°C 22.8°F-5.1°C 87% 2.3 mph S3.7 kmh S 4.4 mph7.1 kmh 29.84 in1010.5 mb 0.00 in0.0 mm 0.00 in/hr0.0 mm/hr 0.00 in0.0 mm
03:51 PM 26.2°F-3.2°C 22.8°F-5.1°C 87% 2.8 mph S4.5 kmh S 4.4 mph7.1 kmh 29.84 in1010.5 mb 0.00 in0.0 mm 0.00 in/hr0.0 mm/hr 0.00 in0.0 mm
03:46 PM 26.4°F-3.1°C 23.0°F-5.0°C 87% 2.2 mph S3.5 kmh S 5.1 mph8.2 kmh 29.84 in1010.5 mb 0.00 in0.0 mm 0.00 in/hr0.0 mm/hr 0.00 in0.0 mm
03:41 PM 26.4°F-3.1°C 23.0°F-5.0°C 87% 2.5 mph S4.0 kmh S 5.1 mph8.2 kmh 29.83 in1010.2 mb 0.00 in0.0 mm 0.00 in/hr0.0 mm/hr 0.00 in0.0 mm
03:36 PM 26.4°F-3.1°C 22.7°F-5.2°C 86% 0.6 mph WSW1.0 kmh WSW 0.7 mph1.1 kmh 29.83 in1010.2 mb 0.00 in0.0 mm 0.00 in/hr0.0 mm/hr 0.00 in0.0 mm
03:31 PM 26.6°F-3.0°C 22.9°F-5.1°C 86% Calm Calm 0.7 mph1.1 kmh 29.83 in1010.2 mb 0.00 in0.0 mm 0.00 in/hr0.0 mm/hr 0.00 in0.0 mm
03:26 PM 26.6°F-3.0°C 22.9°F-5.1°C 86% Calm Calm 1.9 mph3.1 kmh 29.82 in1009.8 mb 0.00 in0.0 mm 0.00 in/hr0.0 mm/hr 0.00 in0.0 mm
03:21 PM 26.6°F-3.0°C 22.9°F-5.1°C 86% 0.3 mph NNW0.5 kmh NNW 1.9 mph3.1 kmh 29.82 in1009.8 mb 0.00 in0.0 mm 0.00 in/hr0.0 mm/hr 0.00 in0.0 mm
03:16 PM 26.6°F-3.0°C 22.9°F-5.1°C 86% 0.9 mph 1.4 kmh 1.9 mph3.1 kmh 29.81 in1009.5 mb 0.00 in0.0 mm 0.00 in/hr0.0 mm/hr 0.00 in0.0 mm
03:11 PM 26.6°F-3.0°C 22.9°F-5.1°C 86% 1.3 mph 2.1 kmh 1.6 mph2.6 kmh 29.81 in1009.5 mb 0.00 in0.0 mm 0.00 in/hr0.0 mm/hr 0.00 in0.0 mm
03:06 PM 26.7°F-2.9°C 23.0°F-5.0°C 86% 0.3 mph NW0.5 kmh NW 1.9 mph3.1 kmh 29.81 in1009.5 mb 0.00 in0.0 mm 0.00 in/hr0.0 mm/hr 0.00 in0.0 mm
03:01 PM 26.7°F-2.9°C 23.0°F-5.0°C 86% 1.0 mph NNW1.6 kmh NNW 1.9 mph3.1 kmh 29.80 in1009.1 mb 0.00 in0.0 mm 0.00 in/hr0.0 mm/hr 0.00 in0.0 mm
02:56 PM 26.7°F-2.9°C 23.0°F-5.0°C 86% 0.6 mph N1.0 kmh N 1.9 mph3.1 kmh 29.79 in1008.8 mb 0.00 in0.0 mm 0.00 in/hr0.0 mm/hr 0.00 in0.0 mm
02:51 PM 26.7°F-2.9°C 23.0°F-5.0°C 86% 0.6 mph NE1.0 kmh NE 0.7 mph1.1 kmh 29.79 in1008.8 mb 0.00 in0.0 mm 0.00 in/hr0.0 mm/hr 0.00 in0.0 mm
02:46 PM 26.7°F-2.9°C 23.0°F-5.0°C 86% Calm Calm 3.1 mph5.0 kmh 29.79 in1008.8 mb 0.00 in0.0 mm 0.00 in/hr0.0 mm/hr 0.00 in0.0 mm
02:41 PM 26.7°F-2.9°C 23.0°F-5.0°C 86% 0.5 mph W0.8 kmh W 3.1 mph5.0 kmh 29.79 in1008.8 mb 0.00 in0.0 mm 0.00 in/hr0.0 mm/hr 0.00 in0.0 mm
02:36 PM 26.9°F-2.8°C 23.2°F-4.9°C 86% 1.0 mph W1.6 kmh W 3.1 mph5.0 kmh 29.79 in1008.8 mb 0.00 in0.0 mm 0.00 in/hr0.0 mm/hr 0.00 in0.0 mm
02:31 PM 26.9°F-2.8°C 23.2°F-4.9°C 86% 1.1 mph NNW1.8 kmh NNW 3.1 mph5.0 kmh 29.79 in1008.8 mb 0.00 in0.0 mm 0.00 in/hr0.0 mm/hr 0.00 in0.0 mm
02:26 PM 26.9°F-2.8°C 23.2°F-4.9°C 86% Calm Calm 1.9 mph3.1 kmh 29.79 in1008.8 mb 0.00 in0.0 mm 0.00 in/hr0.0 mm/hr 0.00 in0.0 mm
02:21 PM 26.9°F-2.8°C 23.2°F-4.9°C 86% 0.9 mph NNE1.4 kmh NNE 1.9 mph3.1 kmh 29.79 in1008.8 mb 0.00 in0.0 mm 0.00 in/hr0.0 mm/hr 0.00 in0.0 mm
02:16 PM 26.9°F-2.8°C 23.2°F-4.9°C 86% Calm Calm 3.1 mph5.0 kmh 29.79 in1008.8 mb 0.00 in0.0 mm 0.00 in/hr0.0 mm/hr 0.00 in0.0 mm
02:11 PM 26.9°F-2.8°C 23.5°F-4.7°C 87% 0.3 mph ENE0.5 kmh ENE 3.1 mph5.0 kmh 29.79 in1008.8 mb 0.00 in0.0 mm 0.00 in/hr0.0 mm/hr 0.00 in0.0 mm
02:06 PM 26.9°F-2.8°C 23.5°F-4.7°C 87% 1.8 mph NE2.9 kmh NE 3.9 mph6.3 kmh 29.79 in1008.8 mb 0.00 in0.0 mm 0.00 in/hr0.0 mm/hr 0.00 in0.0 mm
02:01 PM 26.9°F-2.8°C 23.5°F-4.7°C 87% 1.8 mph NNW2.9 kmh NNW 3.9 mph6.3 kmh 29.79 in1008.8 mb 0.00 in0.0 mm 0.00 in/hr0.0 mm/hr 0.00 in0.0 mm
01:56 PM 26.9°F-2.8°C 23.5°F-4.7°C 87% 0.3 mph NNE0.5 kmh NNE 1.2 mph1.9 kmh 29.79 in1008.8 mb 0.00 in0.0 mm 0.00 in/hr0.0 mm/hr 0.00 in0.0 mm
01:51 PM 26.7°F-2.9°C 23.0°F-5.0°C 86% 0.8 mph W1.3 kmh W 3.1 mph5.0 kmh 29.79 in1008.8 mb 0.00 in0.0 mm 0.00 in/hr0.0 mm/hr 0.00 in0.0 mm
01:46 PM 26.9°F-2.8°C 23.2°F-4.9°C 86% 1.5 mph W2.4 kmh W 3.1 mph5.0 kmh 29.79 in1008.8 mb 0.00 in0.0 mm 0.00 in/hr0.0 mm/hr 0.00 in0.0 mm
01:41 PM 26.9°F-2.8°C 23.2°F-4.9°C 86% 0.4 mph NW0.6 kmh NW 2.3 mph3.7 kmh 29.79 in1008.8 mb 0.00 in0.0 mm 0.00 in/hr0.0 mm/hr 0.00 in0.0 mm
01:36 PM 26.9°F-2.8°C 23.5°F-4.7°C 87% 1.2 mph E1.9 kmh E 2.3 mph3.7 kmh 29.79 in1008.8 mb 0.00 in0.0 mm 0.00 in/hr0.0 mm/hr 0.00 in0.0 mm
01:31 PM 26.9°F-2.8°C 23.5°F-4.7°C 87% 0.6 mph WSW1.0 kmh WSW 4.4 mph7.1 kmh 29.79 in1008.8 mb 0.00 in0.0 mm 0.00 in/hr0.0 mm/hr 0.00 in0.0 mm
01:26 PM 26.9°F-2.8°C 23.5°F-4.7°C 87% 1.2 mph NNW1.9 kmh NNW 4.4 mph7.1 kmh 29.79 in1008.8 mb 0.00 in0.0 mm 0.00 in/hr0.0 mm/hr 0.00 in0.0 mm
01:21 PM 26.9°F-2.8°C 23.2°F-4.9°C 86% 0.3 mph NNW0.5 kmh NNW 6.0 mph9.7 kmh 29.79 in1008.8 mb 0.00 in0.0 mm 0.00 in/hr0.0 mm/hr 0.00 in0.0 mm
01:16 PM 26.9°F-2.8°C 23.5°F-4.7°C 87% 2.3 mph N3.7 kmh N 6.7 mph10.8 kmh 29.79 in1008.8 mb 0.00 in0.0 mm 0.00 in/hr0.0 mm/hr 0.00 in0.0 mm
01:11 PM 26.9°F-2.8°C 23.5°F-4.7°C 87% 3.7 mph NNE6.0 kmh NNE 6.7 mph10.8 kmh 29.80 in1009.1 mb 0.00 in0.0 mm 0.00 in/hr0.0 mm/hr 0.00 in0.0 mm
01:06 PM 27.1°F-2.7°C 23.7°F-4.6°C 87% 2.9 mph N4.7 kmh N 4.7 mph7.6 kmh 29.80 in1009.1 mb 0.00 in0.0 mm 0.00 in/hr0.0 mm/hr 0.00 in0.0 mm
01:01 PM 27.1°F-2.7°C 23.7°F-4.6°C 87% 1.2 mph E1.9 kmh E 3.1 mph5.0 kmh 29.80 in1009.1 mb 0.00 in0.0 mm 0.00 in/hr0.0 mm/hr 0.00 in0.0 mm
12:56 PM 26.9°F-2.8°C 23.5°F-4.7°C 87% 1.4 mph NE2.3 kmh NE 3.1 mph5.0 kmh 29.80 in1009.1 mb 0.00 in0.0 mm 0.00 in/hr0.0 mm/hr 0.00 in0.0 mm
12:51 PM 26.9°F-2.8°C 23.5°F-4.7°C 87% 1.5 mph NNE2.4 kmh NNE 5.4 mph8.7 kmh 29.80 in1009.1 mb 0.00 in0.0 mm 0.00 in/hr0.0 mm/hr 0.00 in0.0 mm
12:46 PM 27.1°F-2.7°C 23.7°F-4.6°C 87% 2.2 mph NE3.5 kmh NE 5.4 mph8.7 kmh 29.81 in1009.5 mb 0.00 in0.0 mm 0.00 in/hr0.0 mm/hr 0.00 in0.0 mm
12:41 PM 27.1°F-2.7°C 23.7°F-4.6°C 87% 1.4 mph N2.3 kmh N 5.1 mph8.2 kmh 29.80 in1009.1 mb 0.00 in0.0 mm 0.00 in/hr0.0 mm/hr 0.00 in0.0 mm
12:36 PM 27.3°F-2.6°C 23.9°F-4.5°C 87% 1.1 mph NNE1.8 kmh NNE 5.4 mph8.7 kmh 29.81 in1009.5 mb 0.00 in0.0 mm 0.00 in/hr0.0 mm/hr 0.00 in0.0 mm
12:31 PM 27.3°F-2.6°C 23.9°F-4.5°C 87% 1.2 mph 1.9 kmh 5.4 mph8.7 kmh 29.81 in1009.5 mb 0.00 in0.0 mm 0.00 in/hr0.0 mm/hr 0.00 in0.0 mm
12:26 PM 27.3°F-2.6°C 23.9°F-4.5°C 87% 2.0 mph N3.2 kmh N 4.7 mph7.6 kmh 29.81 in1009.5 mb 0.00 in0.0 mm 0.00 in/hr0.0 mm/hr 0.00 in0.0 mm
12:21 PM 27.1°F-2.7°C 23.7°F-4.6°C 87% 0.6 mph NNW1.0 kmh NNW 4.7 mph7.6 kmh 29.81 in1009.5 mb 0.00 in0.0 mm 0.00 in/hr0.0 mm/hr 0.00 in0.0 mm
12:16 PM 27.1°F-2.7°C 23.7°F-4.6°C 87% 1.0 mph N1.6 kmh N 2.3 mph3.7 kmh 29.82 in1009.8 mb 0.00 in0.0 mm 0.00 in/hr0.0 mm/hr 0.00 in0.0 mm
12:11 PM 26.9°F-2.8°C 23.5°F-4.7°C 87% 1.2 mph NNE1.9 kmh NNE 2.3 mph3.7 kmh 29.82 in1009.8 mb 0.00 in0.0 mm 0.00 in/hr0.0 mm/hr 0.00 in0.0 mm
12:06 PM 26.9°F-2.8°C 23.5°F-4.7°C 87% 0.3 mph N0.5 kmh N 2.8 mph4.5 kmh 29.82 in1009.8 mb 0.00 in0.0 mm 0.00 in/hr0.0 mm/hr 0.00 in0.0 mm
12:01 PM 26.9°F-2.8°C 23.5°F-4.7°C 87% 0.6 mph 1.0 kmh 2.8 mph4.5 kmh 29.82 in1009.8 mb 0.00 in0.0 mm 0.00 in/hr0.0 mm/hr 0.00 in0.0 mm
11:56 AM 26.9°F-2.8°C 23.5°F-4.7°C 87% 1.1 mph ENE1.8 kmh ENE 2.8 mph4.5 kmh 29.82 in1009.8 mb 0.00 in0.0 mm 0.00 in/hr0.0 mm/hr 0.00 in0.0 mm
11:51 AM 26.9°F-2.8°C 23.5°F-4.7°C 87% Calm Calm 2.8 mph4.5 kmh 29.83 in1010.2 mb 0.00 in0.0 mm 0.00 in/hr0.0 mm/hr 0.00 in0.0 mm
11:45 AM 26.7°F-2.9°C 23.3°F-4.8°C 87% Calm Calm 3.1 mph5.0 kmh 29.83 in1010.2 mb 0.00 in0.0 mm 0.00 in/hr0.0 mm/hr 0.00 in0.0 mm
11:40 AM 26.9°F-2.8°C 23.5°F-4.7°C 87% 0.5 mph NNE0.8 kmh NNE 3.1 mph5.0 kmh 29.83 in1010.2 mb 0.00 in0.0 mm 0.00 in/hr0.0 mm/hr 0.00 in0.0 mm
11:35 AM 26.7°F-2.9°C 23.3°F-4.8°C 87% Calm Calm 1.9 mph3.1 kmh 29.83 in1010.2 mb 0.00 in0.0 mm 0.00 in/hr0.0 mm/hr 0.00 in0.0 mm
11:30 AM 26.7°F-2.9°C 23.3°F-4.8°C 87% 1.0 mph SSE1.6 kmh SSE 1.9 mph3.1 kmh 29.83 in1010.2 mb 0.00 in0.0 mm 0.00 in/hr0.0 mm/hr 0.00 in0.0 mm
11:25 AM 26.7°F-2.9°C 23.3°F-4.8°C 87% 0.6 mph SE1.0 kmh SE 1.6 mph2.6 kmh 29.83 in1010.2 mb 0.00 in0.0 mm 0.00 in/hr0.0 mm/hr 0.00 in0.0 mm
11:20 AM 26.6°F-3.0°C 23.2°F-4.9°C 87% 0.3 mph SE0.5 kmh SE 0.3 mph0.5 kmh 29.84 in1010.5 mb 0.00 in0.0 mm 0.00 in/hr0.0 mm/hr 0.00 in0.0 mm
11:14 AM 26.4°F-3.1°C 23.0°F-5.0°C 87% 0.3 mph ENE0.5 kmh ENE 2.3 mph3.7 kmh 29.84 in1010.5 mb 0.00 in0.0 mm 0.00 in/hr0.0 mm/hr 0.00 in0.0 mm
11:09 AM 26.4°F-3.1°C 23.0°F-5.0°C 87% Calm Calm 2.8 mph4.5 kmh 29.84 in1010.5 mb 0.00 in0.0 mm 0.00 in/hr0.0 mm/hr 0.00 in0.0 mm
11:04 AM 26.6°F-3.0°C 23.5°F-4.7°C 88% 1.2 mph SE1.9 kmh SE 2.8 mph4.5 kmh 29.84 in1010.5 mb 0.00 in0.0 mm 0.00 in/hr0.0 mm/hr 0.00 in0.0 mm
10:59 AM 26.6°F-3.0°C 23.5°F-4.7°C 88% 0.3 mph SSW0.5 kmh SSW 1.6 mph2.6 kmh 29.84 in1010.5 mb 0.00 in0.0 mm 0.00 in/hr0.0 mm/hr 0.00 in0.0 mm
10:54 AM 26.6°F-3.0°C 23.5°F-4.7°C 88% 0.3 mph NNW0.5 kmh NNW 1.9 mph3.1 kmh 29.84 in1010.5 mb 0.00 in0.0 mm 0.00 in/hr0.0 mm/hr 0.00 in0.0 mm
10:49 AM 26.4°F-3.1°C 23.3°F-4.8°C 88% 1.0 mph ENE1.6 kmh ENE 1.9 mph3.1 kmh 29.84 in1010.5 mb 0.00 in0.0 mm 0.00 in/hr0.0 mm/hr 0.00 in0.0 mm
10:43 AM 26.4°F-3.1°C 23.3°F-4.8°C 88% Calm Calm 1.6 mph2.6 kmh 29.84 in1010.5 mb 0.00 in0.0 mm 0.00 in/hr0.0 mm/hr 0.00 in0.0 mm
10:38 AM 26.4°F-3.1°C 23.3°F-4.8°C 88% 1.3 mph ENE2.1 kmh ENE 1.6 mph2.6 kmh 29.84 in1010.5 mb 0.00 in0.0 mm 0.00 in/hr0.0 mm/hr 0.00 in0.0 mm
10:33 AM 26.2°F-3.2°C 23.1°F-4.9°C 88% 0.6 mph NW1.0 kmh NW 1.2 mph1.9 kmh 29.84 in1010.5 mb 0.00 in0.0 mm 0.00 in/hr0.0 mm/hr 0.00 in0.0 mm
10:28 AM 26.2°F-3.2°C 23.1°F-4.9°C 88% Calm Calm 1.9 mph3.1 kmh 29.84 in1010.5 mb 0.00 in0.0 mm 0.00 in/hr0.0 mm/hr 0.00 in0.0 mm
10:23 AM 26.2°F-3.2°C 23.1°F-4.9°C 88% 1.3 mph N2.1 kmh N 1.9 mph3.1 kmh 29.85 in1010.8 mb 0.00 in0.0 mm 0.00 in/hr0.0 mm/hr 0.00 in0.0 mm
10:18 AM 26.0°F-3.3°C 22.9°F-5.1°C 88% 0.3 mph NW0.5 kmh NW 6.3 mph10.1 kmh 29.85 in1010.8 mb 0.00 in0.0 mm 0.00 in/hr0.0 mm/hr 0.00 in0.0 mm
10:13 AM 26.0°F-3.3°C 22.9°F-5.1°C 88% 0.8 mph NNE1.3 kmh NNE 6.3 mph10.1 kmh 29.85 in1010.8 mb 0.00 in0.0 mm 0.00 in/hr0.0 mm/hr 0.00 in0.0 mm
10:08 AM 26.0°F-3.3°C 22.9°F-5.1°C 88% 2.8 mph NE4.5 kmh NE 4.7 mph7.6 kmh 29.85 in1010.8 mb 0.00 in0.0 mm 0.00 in/hr0.0 mm/hr 0.00 in0.0 mm
10:03 AM 25.8°F-3.4°C 22.7°F-5.2°C 88% Calm Calm 7.9 mph12.7 kmh 29.84 in1010.5 mb 0.00 in0.0 mm 0.00 in/hr0.0 mm/hr 0.00 in0.0 mm
09:58 AM 25.8°F-3.4°C 22.7°F-5.2°C 88% 3.0 mph NE4.8 kmh NE 7.9 mph12.7 kmh 29.84 in1010.5 mb 0.00 in0.0 mm 0.00 in/hr0.0 mm/hr 0.00 in0.0 mm
09:53 AM 25.8°F-3.4°C 22.7°F-5.2°C 88% 3.0 mph N4.8 kmh N 7.0 mph11.3 kmh 29.84 in1010.5 mb 0.00 in0.0 mm 0.00 in/hr0.0 mm/hr 0.00 in0.0 mm
09:48 AM 25.7°F-3.5°C 22.6°F-5.2°C 88% 3.1 mph ENE5.0 kmh ENE 6.0 mph9.7 kmh 29.84 in1010.5 mb 0.00 in0.0 mm 0.00 in/hr0.0 mm/hr 0.00 in0.0 mm
09:43 AM 25.5°F-3.6°C 22.4°F-5.3°C 88% 0.7 mph ESE1.1 kmh ESE 6.0 mph9.7 kmh 29.84 in1010.5 mb 0.00 in0.0 mm 0.00 in/hr0.0 mm/hr 0.00 in0.0 mm
09:38 AM 25.5°F-3.6°C 22.4°F-5.3°C 88% 2.3 mph NE3.7 kmh NE 7.0 mph11.3 kmh 29.84 in1010.5 mb 0.00 in0.0 mm 0.00 in/hr0.0 mm/hr 0.00 in0.0 mm
09:33 AM 25.5°F-3.6°C 22.4°F-5.3°C 88% 3.6 mph NE5.8 kmh NE 7.0 mph11.3 kmh 29.83 in1010.2 mb 0.00 in0.0 mm 0.00 in/hr0.0 mm/hr 0.00 in0.0 mm
09:28 AM 25.3°F-3.7°C 22.2°F-5.4°C 88% 0.8 mph NE1.3 kmh NE 6.0 mph9.7 kmh 29.83 in1010.2 mb 0.00 in0.0 mm 0.00 in/hr0.0 mm/hr 0.00 in0.0 mm
09:23 AM 25.3°F-3.7°C 22.2°F-5.4°C 88% 2.4 mph NNE3.9 kmh NNE 8.6 mph13.8 kmh 29.83 in1010.2 mb 0.00 in0.0 mm 0.00 in/hr0.0 mm/hr 0.00 in0.0 mm
09:18 AM 25.3°F-3.7°C 22.2°F-5.4°C 88% 2.6 mph 4.2 kmh 8.9 mph14.3 kmh 29.83 in1010.2 mb 0.00 in0.0 mm 0.00 in/hr0.0 mm/hr 0.00 in0.0 mm
09:13 AM 25.3°F-3.7°C 22.2°F-5.4°C 88% 5.4 mph NNE8.7 kmh NNE 8.9 mph14.3 kmh 29.83 in1010.2 mb 0.00 in0.0 mm 0.00 in/hr0.0 mm/hr 0.00 in0.0 mm
09:08 AM 25.1°F-3.8°C 22.0°F-5.6°C 88% 3.6 mph NNE5.8 kmh NNE 8.2 mph13.2 kmh 29.83 in1010.2 mb 0.00 in0.0 mm 0.00 in/hr0.0 mm/hr 0.00 in0.0 mm
09:03 AM 25.1°F-3.8°C 22.0°F-5.6°C 88% 1.3 mph N2.1 kmh N 8.2 mph13.2 kmh 29.83 in1010.2 mb 0.00 in0.0 mm 0.00 in/hr0.0 mm/hr 0.00 in0.0 mm
08:58 AM 25.1°F-3.8°C 22.0°F-5.6°C 88% 2.4 mph N3.9 kmh N 7.9 mph12.7 kmh 29.83 in1010.2 mb 0.00 in0.0 mm 0.00 in/hr0.0 mm/hr 0.00 in0.0 mm
08:53 AM 25.1°F-3.8°C 22.0°F-5.6°C 88% 2.2 mph N3.5 kmh N 7.0 mph11.3 kmh 29.83 in1010.2 mb 0.00 in0.0 mm 0.00 in/hr0.0 mm/hr 0.00 in0.0 mm
08:48 AM 24.9°F-3.9°C 21.8°F-5.7°C 88% 1.0 mph N1.6 kmh N 4.4 mph7.1 kmh 29.83 in1010.2 mb 0.00 in0.0 mm 0.00 in/hr0.0 mm/hr 0.00 in0.0 mm
08:43 AM 24.9°F-3.9°C 21.8°F-5.7°C 88% 2.9 mph N4.7 kmh N 4.4 mph7.1 kmh 29.83 in1010.2 mb 0.00 in0.0 mm 0.00 in/hr0.0 mm/hr 0.00 in0.0 mm
08:38 AM 24.9°F-3.9°C 21.8°F-5.7°C 88% 1.2 mph N1.9 kmh N 5.4 mph8.7 kmh 29.83 in1010.2 mb 0.00 in0.0 mm 0.00 in/hr0.0 mm/hr 0.00 in0.0 mm
08:33 AM 24.8°F-4.0°C 21.7°F-5.7°C 88% 2.0 mph 3.2 kmh 5.4 mph8.7 kmh 29.83 in1010.2 mb 0.00 in0.0 mm 0.00 in/hr0.0 mm/hr 0.00 in0.0 mm
08:28 AM 24.8°F-4.0°C 21.7°F-5.7°C 88% 1.7 mph N2.7 kmh N 5.1 mph8.2 kmh 29.83 in1010.2 mb 0.00 in0.0 mm 0.00 in/hr0.0 mm/hr 0.00 in0.0 mm
08:23 AM 24.8°F-4.0°C 21.7°F-5.7°C 88% 0.9 mph NNW1.4 kmh NNW 5.1 mph8.2 kmh 29.83 in1010.2 mb 0.00 in0.0 mm 0.00 in/hr0.0 mm/hr 0.00 in0.0 mm
08:18 AM 24.8°F-4.0°C 21.7°F-5.7°C 88% 1.5 mph N2.4 kmh N 6.0 mph9.7 kmh 29.83 in1010.2 mb 0.00 in0.0 mm 0.00 in/hr0.0 mm/hr 0.00 in0.0 mm
08:13 AM 24.8°F-4.0°C 21.7°F-5.7°C 88% 3.6 mph N5.8 kmh N 6.0 mph9.7 kmh 29.83 in1010.2 mb 0.00 in0.0 mm 0.00 in/hr0.0 mm/hr 0.00 in0.0 mm
08:08 AM 24.8°F-4.0°C 21.7°F-5.7°C 88% 2.5 mph NNE4.0 kmh NNE 4.4 mph7.1 kmh 29.83 in1010.2 mb 0.00 in0.0 mm 0.00 in/hr0.0 mm/hr 0.00 in0.0 mm
08:03 AM 24.6°F-4.1°C 21.5°F-5.8°C 88% 0.6 mph N1.0 kmh N 1.6 mph2.6 kmh 29.82 in1009.8 mb 0.00 in0.0 mm 0.00 in/hr0.0 mm/hr 0.00 in0.0 mm
07:58 AM 24.8°F-4.0°C 21.7°F-5.7°C 88% 0.8 mph NNE1.3 kmh NNE 4.4 mph7.1 kmh 29.82 in1009.8 mb 0.00 in0.0 mm 0.00 in/hr0.0 mm/hr 0.00 in0.0 mm
07:53 AM 24.6°F-4.1°C 21.5°F-5.8°C 88% Calm Calm 4.4 mph7.1 kmh 29.82 in1009.8 mb 0.00 in0.0 mm 0.00 in/hr0.0 mm/hr 0.00 in0.0 mm
07:48 AM 24.6°F-4.1°C 21.5°F-5.8°C 88% 0.9 mph 1.4 kmh 9.4 mph15.1 kmh 29.82 in1009.8 mb 0.00 in0.0 mm 0.00 in/hr0.0 mm/hr 0.00 in0.0 mm
07:43 AM 24.6°F-4.1°C 21.5°F-5.8°C 88% 1.7 mph NNW2.7 kmh NNW 9.4 mph15.1 kmh 29.82 in1009.8 mb 0.00 in0.0 mm 0.00 in/hr0.0 mm/hr 0.00 in0.0 mm
07:38 AM 24.6°F-4.1°C 21.5°F-5.8°C 88% 3.2 mph NE5.1 kmh NE 6.7 mph10.8 kmh 29.81 in1009.5 mb 0.00 in0.0 mm 0.00 in/hr0.0 mm/hr 0.00 in0.0 mm
07:33 AM 24.6°F-4.1°C 21.5°F-5.8°C 88% 2.3 mph N3.7 kmh N 6.7 mph10.8 kmh 29.82 in1009.8 mb 0.00 in0.0 mm 0.00 in/hr0.0 mm/hr 0.00 in0.0 mm
07:28 AM 24.6°F-4.1°C 21.5°F-5.8°C 88% 0.9 mph NNW1.4 kmh NNW 5.4 mph8.7 kmh 29.82 in1009.8 mb 0.00 in0.0 mm 0.00 in/hr0.0 mm/hr 0.00 in0.0 mm
07:23 AM 24.6°F-4.1°C 21.5°F-5.8°C 88% 0.3 mph E0.5 kmh E 9.8 mph15.8 kmh 29.82 in1009.8 mb 0.00 in0.0 mm 0.00 in/hr0.0 mm/hr 0.00 in0.0 mm
07:18 AM 24.6°F-4.1°C 21.5°F-5.8°C 88% 3.2 mph E5.1 kmh E 9.8 mph15.8 kmh 29.82 in1009.8 mb 0.00 in0.0 mm 0.00 in/hr0.0 mm/hr 0.00 in0.0 mm
07:13 AM 24.6°F-4.1°C 21.5°F-5.8°C 88% 3.6 mph NE5.8 kmh NE 6.3 mph10.1 kmh 29.82 in1009.8 mb 0.00 in0.0 mm 0.00 in/hr0.0 mm/hr 0.00 in0.0 mm
07:08 AM 24.6°F-4.1°C 21.5°F-5.8°C 88% 1.2 mph NE1.9 kmh NE 6.3 mph10.1 kmh 29.82 in1009.8 mb 0.00 in0.0 mm 0.00 in/hr0.0 mm/hr 0.00 in0.0 mm
07:03 AM 24.6°F-4.1°C 21.5°F-5.8°C 88% 3.2 mph NE5.1 kmh NE 6.3 mph10.1 kmh 29.82 in1009.8 mb 0.00 in0.0 mm 0.00 in/hr0.0 mm/hr 0.00 in0.0 mm
06:58 AM 24.6°F-4.1°C 21.5°F-5.8°C 88% 1.9 mph NE3.1 kmh NE 5.1 mph8.2 kmh 29.82 in1009.8 mb 0.00 in0.0 mm 0.00 in/hr0.0 mm/hr 0.00 in0.0 mm
06:53 AM 24.6°F-4.1°C 21.5°F-5.8°C 88% 1.3 mph NNE2.1 kmh NNE 3.1 mph5.0 kmh 29.82 in1009.8 mb 0.00 in0.0 mm 0.00 in/hr0.0 mm/hr 0.00 in0.0 mm
06:48 AM 24.8°F-4.0°C 21.7°F-5.7°C 88% 0.5 mph 0.8 kmh 3.5 mph5.6 kmh 29.82 in1009.8 mb 0.00 in0.0 mm 0.00 in/hr0.0 mm/hr 0.00 in0.0 mm
06:43 AM 24.8°F-4.0°C 21.7°F-5.7°C 88% Calm Calm 4.4 mph7.1 kmh 29.82 in1009.8 mb 0.00 in0.0 mm 0.00 in/hr0.0 mm/hr 0.00 in0.0 mm
06:38 AM 24.8°F-4.0°C 21.7°F-5.7°C 88% 1.1 mph N1.8 kmh N 4.4 mph7.1 kmh 29.82 in1009.8 mb 0.00 in0.0 mm 0.00 in/hr0.0 mm/hr 0.00 in0.0 mm
06:33 AM 24.6°F-4.1°C 21.5°F-5.8°C 88% 1.6 mph NW2.6 kmh NW 7.0 mph11.3 kmh 29.81 in1009.5 mb 0.00 in0.0 mm 0.00 in/hr0.0 mm/hr 0.00 in0.0 mm
06:28 AM 24.6°F-4.1°C 21.5°F-5.8°C 88% 1.0 mph N1.6 kmh N 7.0 mph11.3 kmh 29.81 in1009.5 mb 0.00 in0.0 mm 0.00 in/hr0.0 mm/hr 0.00 in0.0 mm
06:23 AM 24.6°F-4.1°C 21.5°F-5.8°C 88% 0.9 mph N1.4 kmh N 3.5 mph5.6 kmh 29.81 in1009.5 mb 0.00 in0.0 mm 0.00 in/hr0.0 mm/hr 0.00 in0.0 mm
06:18 AM 24.6°F-4.1°C 21.5°F-5.8°C 88% 1.7 mph N2.7 kmh N 3.5 mph5.6 kmh 29.81 in1009.5 mb 0.00 in0.0 mm 0.00 in/hr0.0 mm/hr 0.00 in0.0 mm
06:13 AM 24.6°F-4.1°C 21.5°F-5.8°C 88% 1.4 mph 2.3 kmh 8.2 mph13.2 kmh 29.81 in1009.5 mb 0.00 in0.0 mm 0.00 in/hr0.0 mm/hr 0.00 in0.0 mm
06:08 AM 24.6°F-4.1°C 21.5°F-5.8°C 88% 3.1 mph NE5.0 kmh NE 8.2 mph13.2 kmh 29.81 in1009.5 mb 0.00 in0.0 mm 0.00 in/hr0.0 mm/hr 0.00 in0.0 mm
06:03 AM 24.6°F-4.1°C 21.5°F-5.8°C 88% 1.0 mph NNE1.6 kmh NNE 2.3 mph3.7 kmh 29.81 in1009.5 mb 0.00 in0.0 mm 0.00 in/hr0.0 mm/hr 0.00 in0.0 mm
05:58 AM 24.6°F-4.1°C 21.5°F-5.8°C 88% 1.2 mph N1.9 kmh N 2.8 mph4.5 kmh 29.80 in1009.1 mb 0.00 in0.0 mm 0.00 in/hr0.0 mm/hr 0.00 in0.0 mm
05:53 AM 24.6°F-4.1°C 21.5°F-5.8°C 88% 1.0 mph NNW1.6 kmh NNW 4.4 mph7.1 kmh 29.80 in1009.1 mb 0.00 in0.0 mm 0.00 in/hr0.0 mm/hr 0.00 in0.0 mm
05:48 AM 24.6°F-4.1°C 21.5°F-5.8°C 88% 1.2 mph NW1.9 kmh NW 4.7 mph7.6 kmh 29.80 in1009.1 mb 0.00 in0.0 mm 0.00 in/hr0.0 mm/hr 0.00 in0.0 mm
05:43 AM 24.6°F-4.1°C 21.5°F-5.8°C 88% 3.8 mph 6.1 kmh 4.7 mph7.6 kmh 29.80 in1009.1 mb 0.00 in0.0 mm 0.00 in/hr0.0 mm/hr 0.00 in0.0 mm
05:38 AM 24.6°F-4.1°C 21.5°F-5.8°C 88% 1.2 mph NNW1.9 kmh NNW 4.7 mph7.6 kmh 29.80 in1009.1 mb 0.00 in0.0 mm 0.00 in/hr0.0 mm/hr 0.00 in0.0 mm
05:33 AM 24.6°F-4.1°C 21.5°F-5.8°C 88% 0.9 mph NNW1.4 kmh NNW 2.8 mph4.5 kmh 29.80 in1009.1 mb 0.00 in0.0 mm 0.00 in/hr0.0 mm/hr 0.00 in0.0 mm
05:28 AM 24.6°F-4.1°C 21.5°F-5.8°C 88% 1.6 mph NNW2.6 kmh NNW 2.8 mph4.5 kmh 29.81 in1009.5 mb 0.00 in0.0 mm 0.00 in/hr0.0 mm/hr 0.00 in0.0 mm
05:23 AM 24.6°F-4.1°C 21.5°F-5.8°C 88% 1.0 mph WNW1.6 kmh WNW 1.9 mph3.1 kmh 29.81 in1009.5 mb 0.00 in0.0 mm 0.00 in/hr0.0 mm/hr 0.00 in0.0 mm
05:18 AM 24.6°F-4.1°C 21.5°F-5.8°C 88% 0.3 mph WNW0.5 kmh WNW 4.4 mph7.1 kmh 29.80 in1009.1 mb 0.00 in0.0 mm 0.00 in/hr0.0 mm/hr 0.00 in0.0 mm
05:13 AM 24.6°F-4.1°C 21.5°F-5.8°C 88% 1.4 mph NNW2.3 kmh NNW 4.4 mph7.1 kmh 29.81 in1009.5 mb 0.00 in0.0 mm 0.00 in/hr0.0 mm/hr 0.00 in0.0 mm
05:08 AM 24.6°F-4.1°C 21.5°F-5.8°C 88% 2.0 mph NNW3.2 kmh NNW 4.4 mph7.1 kmh 29.81 in1009.5 mb 0.00 in0.0 mm 0.00 in/hr0.0 mm/hr 0.00 in0.0 mm
05:03 AM 24.6°F-4.1°C 21.5°F-5.8°C 88% 1.1 mph S1.8 kmh S 3.5 mph5.6 kmh 29.81 in1009.5 mb 0.00 in0.0 mm 0.00 in/hr0.0 mm/hr 0.00 in0.0 mm
04:58 AM 24.6°F-4.1°C 21.5°F-5.8°C 88% 1.3 mph WNW2.1 kmh WNW 2.3 mph3.7 kmh 29.81 in1009.5 mb 0.00 in0.0 mm 0.00 in/hr0.0 mm/hr 0.00 in0.0 mm
04:53 AM 24.6°F-4.1°C 21.5°F-5.8°C 88% Calm Calm 1.9 mph3.1 kmh 29.80 in1009.1 mb 0.00 in0.0 mm 0.00 in/hr0.0 mm/hr 0.00 in0.0 mm
04:47 AM 24.6°F-4.1°C 21.5°F-5.8°C 88% 1.1 mph WNW1.8 kmh WNW 4.4 mph7.1 kmh 29.80 in1009.1 mb 0.00 in0.0 mm 0.00 in/hr0.0 mm/hr 0.00 in0.0 mm
04:43 AM 24.6°F-4.1°C 21.5°F-5.8°C 88% 2.8 mph NNE4.5 kmh NNE 4.4 mph7.1 kmh 29.80 in1009.1 mb 0.00 in0.0 mm 0.00 in/hr0.0 mm/hr 0.00 in0.0 mm
04:38 AM 24.6°F-4.1°C 21.5°F-5.8°C 88% 0.9 mph SSW1.4 kmh SSW 3.1 mph5.0 kmh 29.80 in1009.1 mb 0.00 in0.0 mm 0.00 in/hr0.0 mm/hr 0.00 in0.0 mm
04:32 AM 24.6°F-4.1°C 21.5°F-5.8°C 88% 0.3 mph 0.5 kmh 1.2 mph1.9 kmh 29.80 in1009.1 mb 0.00 in0.0 mm 0.00 in/hr0.0 mm/hr 0.00 in0.0 mm
04:27 AM 24.6°F-4.1°C 21.5°F-5.8°C 88% 0.3 mph SW0.5 kmh SW 1.9 mph3.1 kmh 29.80 in1009.1 mb 0.00 in0.0 mm 0.00 in/hr0.0 mm/hr 0.00 in0.0 mm
04:22 AM 24.6°F-4.1°C 21.5°F-5.8°C 88% 0.3 mph W0.5 kmh W 1.9 mph3.1 kmh 29.80 in1009.1 mb 0.00 in0.0 mm 0.00 in/hr0.0 mm/hr 0.00 in0.0 mm
04:17 AM 24.6°F-4.1°C 21.5°F-5.8°C 88% 0.4 mph W0.6 kmh W 1.9 mph3.1 kmh 29.81 in1009.5 mb 0.00 in0.0 mm 0.00 in/hr0.0 mm/hr 0.00 in0.0 mm
04:12 AM 24.6°F-4.1°C 21.5°F-5.8°C 88% 0.9 mph W1.4 kmh W 1.9 mph3.1 kmh 29.80 in1009.1 mb 0.00 in0.0 mm 0.00 in/hr0.0 mm/hr 0.00 in0.0 mm
04:07 AM 24.6°F-4.1°C 21.5°F-5.8°C 88% Calm Calm 1.9 mph3.1 kmh 29.80 in1009.1 mb 0.00 in0.0 mm 0.00 in/hr0.0 mm/hr 0.00 in0.0 mm
04:02 AM 24.4°F-4.2°C 21.4°F-5.9°C 88% 0.8 mph NW1.3 kmh NW 3.5 mph5.6 kmh 29.81 in1009.5 mb 0.00 in0.0 mm 0.00 in/hr0.0 mm/hr 0.00 in0.0 mm
03:57 AM 24.4°F-4.2°C 21.4°F-5.9°C 88% 1.6 mph WNW2.6 kmh WNW 3.5 mph5.6 kmh 29.80 in1009.1 mb 0.00 in0.0 mm 0.00 in/hr0.0 mm/hr 0.00 in0.0 mm
03:52 AM 24.4°F-4.2°C 21.4°F-5.9°C 88% Calm Calm 0.7 mph1.1 kmh 29.80 in1009.1 mb 0.00 in0.0 mm 0.00 in/hr0.0 mm/hr 0.00 in0.0 mm
03:47 AM 24.4°F-4.2°C 21.4°F-5.9°C 88% Calm Calm 0.7 mph1.1 kmh 29.81 in1009.5 mb 0.00 in0.0 mm 0.00 in/hr0.0 mm/hr 0.00 in0.0 mm
03:42 AM 24.4°F-4.2°C 21.4°F-5.9°C 88% 0.4 mph WSW0.6 kmh WSW 1.9 mph3.1 kmh 29.81 in1009.5 mb 0.00 in0.0 mm 0.00 in/hr0.0 mm/hr 0.00 in0.0 mm
03:37 AM 24.4°F-4.2°C 21.4°F-5.9°C 88% Calm Calm 1.9 mph3.1 kmh 29.81 in1009.5 mb 0.00 in0.0 mm 0.00 in/hr0.0 mm/hr 0.00 in0.0 mm
03:32 AM 24.4°F-4.2°C 21.4°F-5.9°C 88% 0.6 mph W1.0 kmh W 1.6 mph2.6 kmh 29.81 in1009.5 mb 0.00 in0.0 mm 0.00 in/hr0.0 mm/hr 0.00 in0.0 mm
03:27 AM 24.4°F-4.2°C 21.4°F-5.9°C 88% 0.8 mph W1.3 kmh W 2.8 mph4.5 kmh 29.81 in1009.5 mb 0.00 in0.0 mm 0.00 in/hr0.0 mm/hr 0.00 in0.0 mm
03:22 AM 24.4°F-4.2°C 21.4°F-5.9°C 88% 1.3 mph W2.1 kmh W 2.8 mph4.5 kmh 29.81 in1009.5 mb 0.00 in0.0 mm 0.00 in/hr0.0 mm/hr 0.00 in0.0 mm
03:17 AM 24.4°F-4.2°C 21.4°F-5.9°C 88% 0.3 mph W0.5 kmh W 1.2 mph1.9 kmh 29.81 in1009.5 mb 0.00 in0.0 mm 0.00 in/hr0.0 mm/hr 0.00 in0.0 mm
03:12 AM 24.4°F-4.2°C 21.4°F-5.9°C 88% 0.6 mph WNW1.0 kmh WNW 1.2 mph1.9 kmh 29.81 in1009.5 mb 0.00 in0.0 mm 0.00 in/hr0.0 mm/hr 0.00 in0.0 mm
03:07 AM 24.4°F-4.2°C 21.4°F-5.9°C 88% Calm Calm 0.3 mph0.5 kmh 29.80 in1009.1 mb 0.00 in0.0 mm 0.00 in/hr0.0 mm/hr 0.00 in0.0 mm
03:02 AM 24.4°F-4.2°C 21.4°F-5.9°C 88% Calm Calm 0.3 mph0.5 kmh 29.80 in1009.1 mb 0.00 in0.0 mm 0.00 in/hr0.0 mm/hr 0.00 in0.0 mm
02:57 AM 24.4°F-4.2°C 21.4°F-5.9°C 88% 0.3 mph SSW0.5 kmh SSW 0.3 mph0.5 kmh 29.80 in1009.1 mb 0.00 in0.0 mm 0.00 in/hr0.0 mm/hr 0.00 in0.0 mm
02:52 AM 24.4°F-4.2°C 21.4°F-5.9°C 88% Calm Calm 0.3 mph0.5 kmh 29.80 in1009.1 mb 0.00 in0.0 mm 0.00 in/hr0.0 mm/hr 0.00 in0.0 mm
02:47 AM 24.4°F-4.2°C 21.4°F-5.9°C 88% 0.3 mph SSW0.5 kmh SSW 1.9 mph3.1 kmh 29.81 in1009.5 mb 0.00 in0.0 mm 0.00 in/hr0.0 mm/hr 0.00 in0.0 mm
02:42 AM 24.4°F-4.2°C 21.4°F-5.9°C 88% 0.7 mph W1.1 kmh W 1.9 mph3.1 kmh 29.81 in1009.5 mb 0.00 in0.0 mm 0.00 in/hr0.0 mm/hr 0.00 in0.0 mm
02:37 AM 24.4°F-4.2°C 21.4°F-5.9°C 88% 0.3 mph NNW0.5 kmh NNW 1.9 mph3.1 kmh 29.81 in1009.5 mb 0.00 in0.0 mm 0.00 in/hr0.0 mm/hr 0.00 in0.0 mm
02:32 AM 24.4°F-4.2°C 21.4°F-5.9°C 88% 0.7 mph NW1.1 kmh NW 1.9 mph3.1 kmh 29.81 in1009.5 mb 0.00 in0.0 mm 0.00 in/hr0.0 mm/hr 0.00 in0.0 mm
02:27 AM 24.4°F-4.2°C 21.4°F-5.9°C 88% 0.3 mph S0.5 kmh S 1.9 mph3.1 kmh 29.81 in1009.5 mb 0.00 in0.0 mm 0.00 in/hr0.0 mm/hr 0.00 in0.0 mm
02:22 AM 24.4°F-4.2°C 21.4°F-5.9°C 88% 1.2 mph W1.9 kmh W 3.1 mph5.0 kmh 29.81 in1009.5 mb 0.00 in0.0 mm 0.00 in/hr0.0 mm/hr 0.00 in0.0 mm
02:17 AM 24.4°F-4.2°C 21.4°F-5.9°C 88% 1.5 mph W2.4 kmh W 3.1 mph5.0 kmh 29.82 in1009.8 mb 0.00 in0.0 mm 0.00 in/hr0.0 mm/hr 0.00 in0.0 mm
02:12 AM 24.6°F-4.1°C 21.5°F-5.8°C 88% 0.3 mph W0.5 kmh W 1.2 mph1.9 kmh 29.82 in1009.8 mb 0.00 in0.0 mm 0.00 in/hr0.0 mm/hr 0.00 in0.0 mm
02:07 AM 24.4°F-4.2°C 21.4°F-5.9°C 88% 0.3 mph WNW0.5 kmh WNW 1.9 mph3.1 kmh 29.81 in1009.5 mb 0.00 in0.0 mm 0.00 in/hr0.0 mm/hr 0.00 in0.0 mm
02:02 AM 24.4°F-4.2°C 21.4°F-5.9°C 88% 0.3 mph W0.5 kmh W 3.5 mph5.6 kmh 29.81 in1009.5 mb 0.00 in0.0 mm 0.00 in/hr0.0 mm/hr 0.00 in0.0 mm
01:57 AM 24.4°F-4.2°C 21.4°F-5.9°C 88% 0.3 mph N0.5 kmh N 3.5 mph5.6 kmh 29.81 in1009.5 mb 0.00 in0.0 mm 0.00 in/hr0.0 mm/hr 0.00 in0.0 mm
01:52 AM 24.4°F-4.2°C 21.4°F-5.9°C 88% 1.1 mph NW1.8 kmh NW 3.1 mph5.0 kmh 29.81 in1009.5 mb 0.00 in0.0 mm 0.00 in/hr0.0 mm/hr 0.00 in0.0 mm
01:47 AM 24.4°F-4.2°C 21.4°F-5.9°C 88% 0.5 mph NW0.8 kmh NW 1.9 mph3.1 kmh 29.81 in1009.5 mb 0.00 in0.0 mm 0.00 in/hr0.0 mm/hr 0.00 in0.0 mm
01:42 AM 24.4°F-4.2°C 21.4°F-5.9°C 88% Calm Calm 0.7 mph1.1 kmh 29.81 in1009.5 mb 0.00 in0.0 mm 0.00 in/hr0.0 mm/hr 0.00 in0.0 mm
01:37 AM 24.4°F-4.2°C 21.4°F-5.9°C 88% 0.6 mph NW1.0 kmh NW 0.7 mph1.1 kmh 29.80 in1009.1 mb 0.00 in0.0 mm 0.00 in/hr0.0 mm/hr 0.00 in0.0 mm
01:32 AM 24.4°F-4.2°C 21.4°F-5.9°C 88% 0.6 mph S1.0 kmh S 1.9 mph3.1 kmh 29.80 in1009.1 mb 0.00 in0.0 mm 0.00 in/hr0.0 mm/hr 0.00 in0.0 mm
01:27 AM 24.4°F-4.2°C 21.4°F-5.9°C 88% 1.1 mph W1.8 kmh W 1.9 mph3.1 kmh 29.80 in1009.1 mb 0.00 in0.0 mm 0.00 in/hr0.0 mm/hr 0.00 in0.0 mm
01:22 AM 24.4°F-4.2°C 21.4°F-5.9°C 88% Calm Calm 1.9 mph3.1 kmh 29.80 in1009.1 mb 0.00 in0.0 mm 0.00 in/hr0.0 mm/hr 0.00 in0.0 mm
01:17 AM 24.4°F-4.2°C 21.4°F-5.9°C 88% 0.3 mph NW0.5 kmh NW 1.9 mph3.1 kmh 29.80 in1009.1 mb 0.00 in0.0 mm 0.00 in/hr0.0 mm/hr 0.00 in0.0 mm
01:12 AM 24.4°F-4.2°C 21.1°F-6.1°C 87% 1.1 mph NW1.8 kmh NW 2.3 mph3.7 kmh 29.80 in1009.1 mb 0.00 in0.0 mm 0.00 in/hr0.0 mm/hr 0.00 in0.0 mm
01:07 AM 24.6°F-4.1°C 21.3°F-5.9°C 87% 1.4 mph WNW2.3 kmh WNW 2.3 mph3.7 kmh 29.80 in1009.1 mb 0.00 in0.0 mm 0.00 in/hr0.0 mm/hr 0.00 in0.0 mm
01:02 AM 24.6°F-4.1°C 21.3°F-5.9°C 87% 0.5 mph NW0.8 kmh NW 3.9 mph6.3 kmh 29.80 in1009.1 mb 0.00 in0.0 mm 0.00 in/hr0.0 mm/hr 0.00 in0.0 mm
12:57 AM 24.6°F-4.1°C 21.3°F-5.9°C 87% 2.5 mph NW4.0 kmh NW 3.9 mph6.3 kmh 29.80 in1009.1 mb 0.00 in0.0 mm 0.00 in/hr0.0 mm/hr 0.00 in0.0 mm
12:52 AM 24.6°F-4.1°C 21.3°F-5.9°C 87% 1.1 mph WNW1.8 kmh WNW 3.1 mph5.0 kmh 29.80 in1009.1 mb 0.00 in0.0 mm 0.00 in/hr0.0 mm/hr 0.00 in0.0 mm
12:47 AM 24.6°F-4.1°C 21.3°F-5.9°C 87% 0.5 mph NW0.8 kmh NW 3.1 mph5.0 kmh 29.80 in1009.1 mb 0.00 in0.0 mm 0.00 in/hr0.0 mm/hr 0.00 in0.0 mm
12:42 AM 24.6°F-4.1°C 21.3°F-5.9°C 87% 0.6 mph WNW1.0 kmh WNW 0.7 mph1.1 kmh 29.80 in1009.1 mb 0.00 in0.0 mm 0.00 in/hr0.0 mm/hr 0.00 in0.0 mm
12:37 AM 24.6°F-4.1°C 21.3°F-5.9°C 87% Calm Calm -- 29.80 in1009.1 mb 0.00 in0.0 mm 0.00 in/hr0.0 mm/hr 0.00 in0.0 mm
12:32 AM 24.6°F-4.1°C 21.3°F-5.9°C 87% Calm Calm 0.3 mph0.5 kmh 29.80 in1009.1 mb 0.00 in0.0 mm 0.00 in/hr0.0 mm/hr 0.00 in0.0 mm
12:27 AM 24.6°F-4.1°C 21.3°F-5.9°C 87% Calm Calm 0.3 mph0.5 kmh 29.80 in1009.1 mb 0.00 in0.0 mm 0.00 in/hr0.0 mm/hr 0.00 in0.0 mm
12:22 AM 24.6°F-4.1°C 21.3°F-5.9°C 87% 0.3 mph WNW0.5 kmh WNW 0.3 mph0.5 kmh 29.80 in1009.1 mb 0.00 in0.0 mm 0.00 in/hr0.0 mm/hr 0.00 in0.0 mm
12:17 AM 24.6°F-4.1°C 21.3°F-5.9°C 87% Calm Calm 0.3 mph0.5 kmh 29.80 in1009.1 mb 0.00 in0.0 mm 0.00 in/hr0.0 mm/hr 0.00 in0.0 mm
12:12 AM 24.6°F-4.1°C 21.3°F-5.9°C 87% 0.3 mph WNW0.5 kmh WNW 1.6 mph2.6 kmh 29.80 in1009.1 mb 0.00 in0.0 mm 0.00 in/hr0.0 mm/hr 0.00 in0.0 mm
12:07 AM 24.6°F-4.1°C 21.3°F-5.9°C 87% 0.8 mph 1.3 kmh 1.6 mph2.6 kmh 29.80 in1009.1 mb 0.00 in0.0 mm 0.00 in/hr0.0 mm/hr 0.00 in0.0 mm
12:02 AM 24.6°F-4.1°C 21.3°F-5.9°C 87% 0.6 mph W1.0 kmh W 0.7 mph1.1 kmh 29.80 in1009.1 mb 0.00 in0.0 mm 0.00 in/hr0.0 mm/hr 0.00 in0.0 mm